Time;durP1;ratioP1;P1;durP2;ratioP2;P2;SDS_P1;SDS_P2;PMS_P1;PMS_P2;Temp;Humidity;BMP_temperature;BMP_pressure;BME280_temperature;BME280_humidity;BME280_pressure;Samples;Min_cycle;Max_cycle;Signal;HPM_P1;HPM_P2
2022/04/28 00:00:57;;;;;;;11.80;4.47;;;;;;;;;;5033569;28;20026;-81
2022/04/28 00:03:22;;;;;;;9.00;3.88;;;;;;;;;;5032579;28;20029;-81
2022/04/28 00:05:47;;;;;;;13.27;4.50;;;;;;;;;;5065487;28;20411;-81
2022/04/28 00:08:12;;;;;;;11.65;4.45;;;;;;;;;;5065502;28;20025;-81
2022/04/28 00:10:38;;;;;;;13.32;4.32;;;;;;;;;;5065586;28;20026;-81
2022/04/28 00:13:04;;;;;;;12.82;4.35;;;;;;;;;;5065862;28;20018;-81
2022/04/28 00:15:29;;;;;;;12.52;4.78;;;;;;;;;;5065489;28;20021;-81
2022/04/28 00:17:55;;;;;;;13.07;4.85;;;;;;;;;;5065673;28;20428;-81
2022/04/28 00:20:20;;;;;;;10.43;4.38;;;;;;;;;;5065499;28;20408;-81
2022/04/28 00:22:45;;;;;;;14.20;4.55;;;;;;;;;;5065138;28;20072;-81
2022/04/28 00:25:10;;;;;;;17.50;4.85;;;;;;;;;;5065299;28;20072;-81
2022/04/28 00:27:36;;;;;;;12.70;4.47;;;;;;;;;;5065420;28;20246;-81
2022/04/28 00:30:03;;;;;;;12.82;4.65;;;;;;;;;;5065217;28;20053;-81
2022/04/28 00:32:28;;;;;;;14.88;4.78;;;;;;;;;;5065320;28;20431;-81
2022/04/28 00:34:53;;;;;;;13.82;5.07;;;;;;;;;;5065174;28;20026;-81
2022/04/28 00:37:19;;;;;;;11.48;4.57;;;;;;;;;;5064939;28;20480;-81
2022/04/28 00:39:44;;;;;;;14.40;4.78;;;;;;;;;;5064966;28;20030;-81
2022/04/28 00:42:10;;;;;;;15.20;5.22;;;;;;;;;;5064994;28;20034;-81
2022/04/28 00:44:35;;;;;;;14.90;5.13;;;;;;;;;;5064551;28;20223;-81
2022/04/28 00:47:00;;;;;;;14.53;4.57;;;;;;;;;;5032948;28;20017;-81
2022/04/28 00:52:09;;;;;;;17.38;5.38;;;;;;;;;;5033080;28;20480;-81
2022/04/28 00:54:35;;;;;;;13.23;4.93;;;;;;;;;;5032516;28;20037;-81
2022/04/28 00:57:00;;;;;;;10.70;4.83;;;;;;;;;;5032624;28;20040;-80
2022/04/28 00:59:27;;;;;;;12.90;4.80;;;;;;;;;;5064581;28;20036;-81
2022/04/28 01:01:53;;;;;;;20.10;5.27;;;;;;;;;;5064539;28;20036;-81
2022/04/28 01:04:18;;;;;;;16.35;5.15;;;;;;;;;;5064363;28;20017;-81
2022/04/28 01:06:44;;;;;;;15.98;4.72;;;;;;;;;;5064435;28;20113;-81
2022/04/28 01:09:09;;;;;;;13.67;5.23;;;;;;;;;;5064846;28;20465;-81
2022/04/28 01:11:34;;;;;;;13.52;5.45;;;;;;;;;;5031024;28;20029;-81
2022/04/28 01:14:00;;;;;;;17.73;4.93;;;;;;;;;;5031487;28;20087;-80
2022/04/28 01:16:25;;;;;;;12.35;5.05;;;;;;;;;;5064166;28;20033;-81
2022/04/28 01:18:51;;;;;;;15.05;4.93;;;;;;;;;;5032229;28;20021;-81
2022/04/28 01:21:16;;;;;;;12.18;4.88;;;;;;;;;;5064016;28;20034;-81
2022/04/28 01:23:41;;;;;;;9.93;5.50;;;;;;;;;;5064398;28;20028;-81
2022/04/28 01:26:06;;;;;;;13.60;5.10;;;;;;;;;;5064006;28;20025;-81
2022/04/28 01:28:32;;;;;;;12.83;5.23;;;;;;;;;;5030752;28;20029;-80
2022/04/28 01:31:01;;;;;;;18.40;6.13;;;;;;;;;;5031682;28;20083;-81
2022/04/28 01:33:27;;;;;;;16.33;6.57;;;;;;;;;;5064259;28;20029;-80
2022/04/28 01:35:52;;;;;;;15.80;5.80;;;;;;;;;;5063881;28;20025;-80
2022/04/28 01:38:17;;;;;;;12.60;5.20;;;;;;;;;;5064082;28;20464;-81
2022/04/28 01:40:46;;;;;;;13.97;5.47;;;;;;;;;;5064024;28;20032;-81
2022/04/28 01:43:11;;;;;;;16.50;5.97;;;;;;;;;;5030758;28;20022;-81
2022/04/28 01:45:36;;;;;;;15.80;5.43;;;;;;;;;;5032040;28;20534;-81
2022/04/28 01:48:02;;;;;;;16.37;5.57;;;;;;;;;;5063617;28;20075;-81
2022/04/28 01:50:27;;;;;;;16.37;6.20;;;;;;;;;;5031429;28;20013;-80
2022/04/28 01:55:36;;;;;;;13.83;5.53;;;;;;;;;;5031655;28;20084;-81
2022/04/28 01:58:01;;;;;;;13.07;5.93;;;;;;;;;;5063615;28;20021;-81
2022/04/28 02:00:27;;;;;;;15.70;5.67;;;;;;;;;;5031693;28;20071;-81
2022/04/28 02:02:52;;;;;;;11.70;5.37;;;;;;;;;;5063449;28;20018;-82
2022/04/28 02:05:17;;;;;;;15.87;6.03;;;;;;;;;;5031048;28;20017;-81
2022/04/28 02:07:43;;;;;;;21.70;6.37;;;;;;;;;;5063488;28;20575;-80
2022/04/28 02:10:08;;;;;;;17.13;6.30;;;;;;;;;;5031832;28;20013;-81
2022/04/28 02:12:33;;;;;;;14.27;6.60;;;;;;;;;;5063442;28;20034;-81
2022/04/28 02:14:59;;;;;;;20.23;5.90;;;;;;;;;;5029805;28;20021;-80
2022/04/28 02:17:25;;;;;;;13.20;6.20;;;;;;;;;;5063770;28;20025;-81
2022/04/28 02:19:50;;;;;;;16.90;5.83;;;;;;;;;;5063764;28;20398;-81
2022/04/28 02:22:16;;;;;;;15.33;6.13;;;;;;;;;;5063026;28;20026;-80
2022/04/28 02:24:41;;;;;;;14.70;5.70;;;;;;;;;;5063009;28;20049;-81
2022/04/28 02:27:07;;;;;;;22.97;6.07;;;;;;;;;;5063447;28;20056;-80
2022/04/28 02:29:32;;;;;;;16.73;6.10;;;;;;;;;;5031534;28;20044;-81
2022/04/28 02:31:57;;;;;;;12.57;5.77;;;;;;;;;;5063362;28;20026;-81
2022/04/28 02:34:23;;;;;;;11.67;6.00;;;;;;;;;;5062573;28;20472;-81
2022/04/28 02:36:48;;;;;;;15.53;6.43;;;;;;;;;;5031031;28;20385;-81
2022/04/28 02:39:14;;;;;;;14.10;5.97;;;;;;;;;;5063653;28;20044;-81
2022/04/28 02:41:40;;;;;;;15.80;6.10;;;;;;;;;;5063591;28;20121;-81
2022/04/28 02:44:06;;;;;;;16.40;5.83;;;;;;;;;;5064807;28;20148;-81
2022/04/28 02:46:31;;;;;;;23.10;6.53;;;;;;;;;;5034917;28;20087;-81
2022/04/28 02:48:57;;;;;;;14.97;6.20;;;;;;;;;;5066995;28;20108;-81
2022/04/28 02:51:22;;;;;;;18.53;6.83;;;;;;;;;;5067160;28;20027;-81
2022/04/28 02:53:47;;;;;;;18.67;6.57;;;;;;;;;;5066858;28;20025;-81
2022/04/28 02:56:12;;;;;;;16.57;6.33;;;;;;;;;;5067030;28;20055;-81
2022/04/28 02:58:38;;;;;;;20.50;6.60;;;;;;;;;;5068614;28;20028;-80
2022/04/28 03:01:03;;;;;;;15.07;6.07;;;;;;;;;;5036908;28;20452;-81
2022/04/28 03:03:29;;;;;;;18.00;6.10;;;;;;;;;;5034201;28;20097;-81
2022/04/28 03:11:23;;;;;;;13.73;5.80;;;;;;;;;;5034546;28;20120;-80
2022/04/28 03:13:48;;;;;;;15.90;6.00;;;;;;;;;;5065975;28;20025;-80
2022/04/28 03:16:14;;;;;;;16.90;6.30;;;;;;;;;;5066513;28;20031;-81
2022/04/28 03:18:39;;;;;;;17.13;5.70;;;;;;;;;;5066739;28;20503;-81
2022/04/28 03:21:05;;;;;;;14.13;5.83;;;;;;;;;;5066817;28;20075;-81
2022/04/28 03:23:30;;;;;;;16.83;6.17;;;;;;;;;;5066497;28;20071;-81
2022/04/28 03:25:55;;;;;;;12.30;5.33;;;;;;;;;;5034286;28;20025;-80
2022/04/28 03:28:21;;;;;;;15.97;6.03;;;;;;;;;;5066600;28;20017;-81
2022/04/28 03:30:47;;;;;;;15.27;6.33;;;;;;;;;;5066493;28;20025;-80
2022/04/28 03:33:16;;;;;;;9.33;5.67;;;;;;;;;;5034769;28;20025;-81
2022/04/28 03:35:41;;;;;;;24.17;7.40;;;;;;;;;;5034054;28;20415;-81
2022/04/28 03:38:11;;;;;;;23.63;6.10;;;;;;;;;;5066306;28;20145;-81
2022/04/28 03:40:36;;;;;;;17.33;6.37;;;;;;;;;;5065942;28;20029;-81
2022/04/28 03:43:03;;;;;;;18.47;6.20;;;;;;;;;;5049427;28;20411;-81
2022/04/28 03:45:28;;;;;;;14.93;6.17;;;;;;;;;;5066181;28;20022;-81
2022/04/28 03:47:53;;;;;;;14.00;5.70;;;;;;;;;;5034109;28;20023;-81
2022/04/28 03:50:19;;;;;;;17.10;6.20;;;;;;;;;;5065983;28;20022;-81
2022/04/28 03:52:44;;;;;;;21.40;6.87;;;;;;;;;;5065869;28;20079;-81
2022/04/28 03:55:09;;;;;;;20.60;7.03;;;;;;;;;;5065334;28;20369;-81
2022/04/28 03:57:35;;;;;;;23.17;7.13;;;;;;;;;;5065838;28;20021;-81
2022/04/28 04:00:00;;;;;;;21.70;6.53;;;;;;;;;;5065654;28;20036;-81
2022/04/28 04:02:26;;;;;;;21.27;5.97;;;;;;;;;;5065766;28;20127;-80
2022/04/28 04:04:51;;;;;;;19.53;6.33;;;;;;;;;;5033493;28;20372;-81
2022/04/28 04:07:16;;;;;;;18.07;6.33;;;;;;;;;;5033601;28;20021;-81
2022/04/28 04:09:42;;;;;;;21.10;6.67;;;;;;;;;;5065721;28;20022;-81
2022/04/28 04:12:07;;;;;;;13.20;6.53;;;;;;;;;;5033902;28;20026;-81
2022/04/28 04:14:33;;;;;;;16.77;6.47;;;;;;;;;;5033006;28;20068;-81
2022/04/28 04:16:58;;;;;;;17.23;6.73;;;;;;;;;;5048613;28;20017;-81
2022/04/28 04:19:23;;;;;;;17.03;6.03;;;;;;;;;;5065223;28;20465;-81
2022/04/28 04:21:49;;;;;;;19.43;6.67;;;;;;;;;;5065298;28;20472;-80
2022/04/28 04:24:14;;;;;;;21.00;7.13;;;;;;;;;;5065250;28;20040;-81
2022/04/28 04:26:39;;;;;;;17.50;7.03;;;;;;;;;;5049076;28;20071;-81
2022/04/28 04:29:05;;;;;;;16.13;6.43;;;;;;;;;;5065431;28;20461;-81
2022/04/28 04:34:14;;;;;;;13.40;6.67;;;;;;;;;;5032611;28;20393;-81
2022/04/28 04:36:39;;;;;;;12.95;6.05;;;;;;;;;;5033306;28;20187;-80
2022/04/28 04:39:04;;;;;;;18.17;6.53;;;;;;;;;;5033268;28;20133;-81
2022/04/28 04:41:29;;;;;;;13.95;6.97;;;;;;;;;;5064924;28;20387;-81
2022/04/28 04:43:54;;;;;;;17.02;6.45;;;;;;;;;;5064767;28;20061;-81
2022/04/28 04:46:20;;;;;;;22.35;7.10;;;;;;;;;;5065128;28;20032;-81
2022/04/28 04:48:45;;;;;;;20.77;7.33;;;;;;;;;;5065064;28;20021;-80
2022/04/28 04:51:10;;;;;;;18.27;7.33;;;;;;;;;;5064931;28;20115;-80
2022/04/28 04:53:35;;;;;;;14.10;7.40;;;;;;;;;;5064460;28;20035;-81
2022/04/28 04:56:00;;;;;;;19.17;7.73;;;;;;;;;;5032935;28;20013;-81
2022/04/28 04:58:26;;;;;;;19.43;7.83;;;;;;;;;;5064824;28;20032;-81
2022/04/28 05:00:52;;;;;;;16.43;7.23;;;;;;;;;;5064735;28;20108;-80
2022/04/28 05:03:17;;;;;;;23.20;7.57;;;;;;;;;;5064579;28;20025;-80
2022/04/28 05:05:44;;;;;;;16.47;7.37;;;;;;;;;;5031981;28;20024;-80
2022/04/28 05:08:09;;;;;;;19.77;8.07;;;;;;;;;;5064109;28;20029;-81
2022/04/28 05:10:34;;;;;;;19.03;7.60;;;;;;;;;;5032180;28;20021;-81
2022/04/28 05:12:59;;;;;;;18.53;8.30;;;;;;;;;;5064126;28;20026;-81
2022/04/28 05:15:24;;;;;;;20.40;8.03;;;;;;;;;;5031969;28;20029;-80
2022/04/28 05:17:50;;;;;;;19.63;7.47;;;;;;;;;;5032349;28;20024;-79
2022/04/28 05:20:15;;;;;;;16.40;6.60;;;;;;;;;;5047512;28;20025;-81
2022/04/28 05:22:40;;;;;;;23.03;7.97;;;;;;;;;;5064057;28;20503;-80
2022/04/28 05:25:05;;;;;;;18.07;8.13;;;;;;;;;;5031892;28;20100;-80
2022/04/28 05:27:31;;;;;;;21.53;8.03;;;;;;;;;;5032155;28;20025;-80
2022/04/28 05:29:56;;;;;;;20.27;7.83;;;;;;;;;;5064208;28;20064;-81
2022/04/28 05:32:21;;;;;;;19.90;8.33;;;;;;;;;;5047767;28;20128;-81
2022/04/28 05:34:46;;;;;;;17.70;7.00;;;;;;;;;;5063603;28;20029;-81
2022/04/28 05:37:14;;;;;;;19.83;7.55;;;;;;;;;;5031985;28;20032;-81
2022/04/28 05:39:41;;;;;;;15.30;6.80;;;;;;;;;;5087122;28;20020;-81
2022/04/28 05:42:07;;;;;;;17.25;7.53;;;;;;;;;;5060467;28;20017;-81
2022/04/28 05:47:16;;;;;;;17.08;7.57;;;;;;;;;;5056589;28;20024;-81
2022/04/28 05:49:41;;;;;;;14.85;7.05;;;;;;;;;;5056195;28;20017;-81
2022/04/28 05:52:07;;;;;;;16.85;7.63;;;;;;;;;;5054430;28;20514;-87
2022/04/28 05:54:32;;;;;;;20.70;7.25;;;;;;;;;;5058579;28;20028;-88
2022/04/28 05:56:58;;;;;;;15.45;7.80;;;;;;;;;;5067021;28;20020;-88
2022/04/28 05:59:23;;;;;;;19.77;8.23;;;;;;;;;;5072337;28;20021;-88
2022/04/28 06:01:49;;;;;;;17.52;7.68;;;;;;;;;;5064469;28;20013;-88
2022/04/28 06:04:14;;;;;;;18.92;6.60;;;;;;;;;;5051843;28;20082;-89
2022/04/28 06:06:39;;;;;;;19.58;7.20;;;;;;;;;;5054487;28;20017;-88
2022/04/28 06:09:04;;;;;;;29.15;8.15;;;;;;;;;;5052610;28;20028;-89
2022/04/28 06:11:30;;;;;;;16.02;7.18;;;;;;;;;;5058292;28;20025;-88
2022/04/28 06:13:55;;;;;;;25.92;7.40;;;;;;;;;;5061982;28;20029;-89
2022/04/28 06:16:20;;;;;;;17.10;7.05;;;;;;;;;;5059252;28;20059;-89
2022/04/28 06:18:45;;;;;;;13.93;6.53;;;;;;;;;;5058794;28;20111;-88
2022/04/28 06:21:10;;;;;;;19.13;8.93;;;;;;;;;;5056873;28;20021;-88
2022/04/28 06:23:36;;;;;;;18.05;7.53;;;;;;;;;;5063443;28;20030;-83
2022/04/28 06:26:01;;;;;;;25.77;7.05;;;;;;;;;;5060761;28;20013;-82
2022/04/28 06:28:26;;;;;;;19.02;7.75;;;;;;;;;;5061915;28;20017;-82
2022/04/28 06:30:52;;;;;;;18.17;7.03;;;;;;;;;;5064667;28;20123;-82
2022/04/28 06:33:18;;;;;;;16.13;6.20;;;;;;;;;;5057664;28;20021;-82
2022/04/28 06:35:43;;;;;;;20.95;6.78;;;;;;;;;;5055483;28;20079;-82
2022/04/28 06:38:09;;;;;;;15.23;6.53;;;;;;;;;;5055405;28;20460;-82
2022/04/28 06:40:34;;;;;;;15.27;5.75;;;;;;;;;;5056962;28;20025;-82
2022/04/28 06:42:59;;;;;;;12.52;4.82;;;;;;;;;;5057533;28;20630;-82
2022/04/28 06:45:24;;;;;;;26.98;7.30;;;;;;;;;;5056601;28;20020;-82
2022/04/28 06:47:50;;;;;;;12.15;5.65;;;;;;;;;;5055260;28;20464;-82
2022/04/28 06:50:15;;;;;;;23.63;7.55;;;;;;;;;;5054478;28;20013;-82
2022/04/28 06:52:41;;;;;;;17.80;6.35;;;;;;;;;;5054955;28;20032;-82
2022/04/28 06:55:07;;;;;;;15.18;7.22;;;;;;;;;;5053487;28;20484;-82
2022/04/28 06:57:33;;;;;;;21.77;7.20;;;;;;;;;;5053455;28;20380;-83
2022/04/28 06:59:58;;;;;;;15.60;6.45;;;;;;;;;;5054556;28;20029;-82
2022/04/28 07:02:24;;;;;;;16.55;6.53;;;;;;;;;;5058598;28;20035;-82
2022/04/28 07:04:50;;;;;;;20.15;8.25;;;;;;;;;;5072749;28;20515;-82
2022/04/28 07:07:15;;;;;;;15.27;6.95;;;;;;;;;;5056693;28;20107;-82
2022/04/28 07:09:40;;;;;;;12.52;6.38;;;;;;;;;;5057088;28;20021;-82
2022/04/28 07:12:06;;;;;;;16.60;6.53;;;;;;;;;;5053439;28;20052;-82
2022/04/28 07:14:32;;;;;;;11.95;6.28;;;;;;;;;;5054602;28;20707;-82
2022/04/28 07:16:57;;;;;;;19.50;7.30;;;;;;;;;;5055782;28;20463;-82
2022/04/28 07:19:23;;;;;;;15.48;7.70;;;;;;;;;;5061961;28;20022;-82
2022/04/28 07:21:48;;;;;;;16.95;7.28;;;;;;;;;;5074927;28;20063;-87
2022/04/28 07:24:14;;;;;;;16.35;8.73;;;;;;;;;;5071349;28;20778;-87
2022/04/28 07:26:39;;;;;;;19.27;7.18;;;;;;;;;;5045372;28;20013;-87
2022/04/28 07:29:05;;;;;;;21.55;7.88;;;;;;;;;;5053440;28;20025;-87
2022/04/28 07:31:31;;;;;;;17.67;7.35;;;;;;;;;;5065454;28;20024;-86
2022/04/28 07:33:56;;;;;;;16.98;7.85;;;;;;;;;;5071363;28;20036;-87
2022/04/28 07:36:21;;;;;;;19.48;8.40;;;;;;;;;;5060967;28;20028;-86
2022/04/28 07:38:47;;;;;;;21.08;8.07;;;;;;;;;;5071516;28;20171;-86
2022/04/28 07:41:15;;;;;;;16.50;8.07;;;;;;;;;;5062605;28;20024;-87
2022/04/28 07:43:40;;;;;;;17.38;7.55;;;;;;;;;;5075452;28;20066;-87
2022/04/28 07:46:05;;;;;;;18.00;7.95;;;;;;;;;;5073898;28;20111;-87
2022/04/28 07:48:30;;;;;;;21.30;7.82;;;;;;;;;;5072863;28;20477;-86
2022/04/28 07:50:56;;;;;;;13.80;6.47;;;;;;;;;;5062430;28;20023;-87
2022/04/28 07:53:21;;;;;;;18.50;8.80;;;;;;;;;;5053420;28;20361;-87
2022/04/28 07:56:10;;;;;;;17.73;7.07;;;;;;;;;;5052148;28;20027;-87
2022/04/28 07:58:32;;;;;;;17.60;7.38;;;;;;;;;;5053584;28;20025;-87
2022/04/28 08:00:58;;;;;;;14.27;6.63;;;;;;;;;;5052761;28;20086;-87
2022/04/28 08:03:23;;;;;;;19.30;7.43;;;;;;;;;;5057365;28;20025;-87
2022/04/28 08:05:48;;;;;;;18.02;7.47;;;;;;;;;;5071974;28;20024;-87
2022/04/28 08:08:13;;;;;;;20.58;7.63;;;;;;;;;;5072459;28;20021;-87
2022/04/28 08:10:38;;;;;;;16.90;6.63;;;;;;;;;;5067944;28;20071;-88
2022/04/28 08:13:04;;;;;;;14.52;7.45;;;;;;;;;;5054353;28;20388;-87
2022/04/28 08:15:30;;;;;;;21.75;8.88;;;;;;;;;;5052594;28;20017;-87
2022/04/28 08:17:55;;;;;;;19.98;7.65;;;;;;;;;;5052093;28;20028;-86
2022/04/28 08:20:20;;;;;;;16.13;8.25;;;;;;;;;;5052470;28;20021;-87
2022/04/28 08:22:45;;;;;;;14.32;7.32;;;;;;;;;;5051184;28;20025;-87
2022/04/28 08:25:11;;;;;;;14.15;7.57;;;;;;;;;;5051976;28;20367;-87
2022/04/28 08:27:38;;;;;;;20.13;8.65;;;;;;;;;;5053132;28;20021;-87
2022/04/28 08:30:03;;;;;;;13.23;6.68;;;;;;;;;;5051254;28;20032;-86
2022/04/28 08:32:29;;;;;;;21.58;7.15;;;;;;;;;;5070480;28;20029;-87
2022/04/28 08:34:54;;;;;;;26.17;8.88;;;;;;;;;;5067612;28;20498;-86
2022/04/28 08:37:19;;;;;;;21.55;8.02;;;;;;;;;;5053066;28;20029;-86
2022/04/28 08:39:44;;;;;;;20.65;8.55;;;;;;;;;;5051813;28;20025;-86
2022/04/28 08:42:11;;;;;;;15.35;6.55;;;;;;;;;;5066984;28;20025;-87
2022/04/28 08:44:37;;;;;;;17.23;6.97;;;;;;;;;;5067093;28;20021;-86
2022/04/28 08:47:02;;;;;;;22.90;8.45;;;;;;;;;;5057870;28;20025;-90
2022/04/28 08:49:28;;;;;;;18.45;8.57;;;;;;;;;;5055871;28;20484;-87
2022/04/28 08:51:57;;;;;;;14.90;7.25;;;;;;;;;;5052877;28;20472;-83
2022/04/28 08:54:24;;;;;;;12.45;5.72;;;;;;;;;;5053222;28;20104;-83
2022/04/28 08:56:50;;;;;;;16.95;6.00;;;;;;;;;;5054488;28;20479;-84
2022/04/28 08:59:15;;;;;;;16.02;6.78;;;;;;;;;;5053096;28;20111;-84
2022/04/28 09:01:41;;;;;;;12.38;6.45;;;;;;;;;;5053095;28;20025;-84
2022/04/28 09:04:07;;;;;;;15.40;7.47;;;;;;;;;;5054357;28;20096;-84
2022/04/28 09:06:34;;;;;;;18.52;7.00;;;;;;;;;;5054568;28;20048;-84
2022/04/28 09:09:00;;;;;;;15.40;8.68;;;;;;;;;;5056970;28;20078;-83
2022/04/28 09:11:27;;;;;;;14.13;7.07;;;;;;;;;;5057495;28;20039;-83
2022/04/28 09:16:51;;;;;;;16.17;7.65;;;;;;;;;;5066184;28;20414;-83
2022/04/28 09:19:19;;;;;;;13.82;7.13;;;;;;;;;;5061203;28;20016;-83
2022/04/28 09:21:44;;;;;;;12.10;6.50;;;;;;;;;;5041053;28;20037;-83
2022/04/28 09:24:10;;;;;;;19.45;7.03;;;;;;;;;;5049790;28;20368;-81
2022/04/28 09:26:36;;;;;;;17.17;8.52;;;;;;;;;;5061511;28;20012;-80
2022/04/28 09:29:03;;;;;;;12.60;6.35;;;;;;;;;;5067430;28;20095;-81
2022/04/28 09:31:35;;;;;;;15.55;6.30;;;;;;;;;;5070250;28;20029;-81
2022/04/28 09:34:27;;;;;;;11.95;7.00;;;;;;;;;;5072059;28;20020;-81
2022/04/28 09:36:56;;;;;;;15.27;6.90;;;;;;;;;;5062266;28;20496;-81
2022/04/28 09:44:52;;;;;;;15.82;6.53;;;;;;;;;;5031863;28;20023;-81
2022/04/28 09:47:18;;;;;;;17.35;6.45;;;;;;;;;;5030460;28;20031;-81
2022/04/28 09:49:45;;;;;;;20.33;9.63;;;;;;;;;;5030533;28;20017;-80
2022/04/28 09:52:10;;;;;;;16.60;6.53;;;;;;;;;;5030507;28;20428;-81
2022/04/28 09:54:36;;;;;;;18.85;7.22;;;;;;;;;;5064182;28;20030;-81
2022/04/28 09:57:02;;;;;;;15.48;6.65;;;;;;;;;;5030552;28;20079;-81
2022/04/28 09:59:28;;;;;;;11.55;6.30;;;;;;;;;;5041641;28;20021;-81
2022/04/28 10:01:53;;;;;;;16.52;6.55;;;;;;;;;;5052070;28;20029;-81
2022/04/28 10:04:18;;;;;;;24.98;8.18;;;;;;;;;;5051813;28;20017;-81
2022/04/28 10:06:44;;;;;;;18.77;7.90;;;;;;;;;;5051890;28;20423;-81
2022/04/28 10:09:12;;;;;;;18.88;8.23;;;;;;;;;;5051783;28;20021;-81
2022/04/28 10:11:37;;;;;;;17.67;7.47;;;;;;;;;;5064471;28;20077;-81
2022/04/28 10:14:04;;;;;;;18.58;8.27;;;;;;;;;;5052269;28;20053;-81
2022/04/28 10:16:30;;;;;;;19.05;8.38;;;;;;;;;;5068191;28;20032;-81
2022/04/28 10:18:58;;;;;;;16.30;8.05;;;;;;;;;;5053119;28;20435;-81
2022/04/28 10:21:28;;;;;;;17.88;6.78;;;;;;;;;;5039070;28;20043;-81
2022/04/28 10:32:23;;;;;;;18.30;8.07;;;;;;;;;;5032301;28;20119;-80
2022/04/28 10:35:02;;;;;;;27.13;9.38;;;;;;;;;;5029157;28;20403;-81
2022/04/28 10:37:31;;;;;;;15.32;7.97;;;;;;;;;;5062828;28;20034;-81
2022/04/28 10:39:57;;;;;;;36.58;9.70;;;;;;;;;;5030031;28;20022;-81
2022/04/28 10:42:25;;;;;;;21.75;8.50;;;;;;;;;;5030097;28;20022;-80
2022/04/28 10:44:54;;;;;;;14.73;7.53;;;;;;;;;;5063576;28;20021;-81
2022/04/28 10:47:38;;;;;;;23.73;8.48;;;;;;;;;;5030179;28;20120;-81
2022/04/28 10:50:20;;;;;;;18.30;8.20;;;;;;;;;;5030725;28;20052;-81
2022/04/28 10:52:52;;;;;;;15.07;7.80;;;;;;;;;;5029875;28;20078;-81
2022/04/28 10:55:18;;;;;;;14.85;6.90;;;;;;;;;;5029658;28;20084;-81
2022/04/28 10:57:43;;;;;;;19.48;10.82;;;;;;;;;;5029755;28;20049;-81
2022/04/28 11:00:11;;;;;;;21.58;10.05;;;;;;;;;;5029825;28;20022;-80
2022/04/28 11:02:40;;;;;;;20.33;9.55;;;;;;;;;;5029949;28;20103;-80
2022/04/28 11:05:26;;;;;;;25.83;10.73;;;;;;;;;;5031674;28;20018;-80
2022/04/28 11:07:52;;;;;;;16.27;7.45;;;;;;;;;;5033695;28;20029;-80
2022/04/28 11:10:17;;;;;;;23.15;9.88;;;;;;;;;;5033220;28;20021;-80
2022/04/28 11:12:43;;;;;;;15.30;8.07;;;;;;;;;;5033359;28;20037;-81
2022/04/28 11:15:10;;;;;;;19.02;11.05;;;;;;;;;;5033681;28;20492;-81
2022/04/28 11:17:43;;;;;;;16.35;8.27;;;;;;;;;;5033612;28;20071;-80
2022/04/28 11:20:12;;;;;;;30.63;10.40;;;;;;;;;;5034401;28;20427;-80
2022/04/28 11:22:44;;;;;;;18.83;9.13;;;;;;;;;;5033337;28;20030;-80
2022/04/28 11:25:09;;;;;;;;;;;;;;;;;;5036384;28;20384;-81
2022/04/28 11:27:34;;;;;;;19.00;9.00;;;;;;;;;;5051952;28;20382;-81
2022/04/28 11:30:01;;;;;;;18.95;9.73;;;;;;;;;;5036122;28;20249;-83
2022/04/28 11:32:26;;;;;;;20.55;9.18;;;;;;;;;;5055825;28;20021;-83
2022/04/28 11:34:52;;;;;;;23.27;9.27;;;;;;;;;;5048332;28;20028;-83
2022/04/28 11:37:19;;;;;;;22.92;10.60;;;;;;;;;;5033883;28;20034;-83
2022/04/28 11:39:48;;;;;;;16.40;9.15;;;;;;;;;;5043954;28;20032;-83
2022/04/28 11:42:16;;;;;;;21.15;9.23;;;;;;;;;;5032461;28;20033;-83
2022/04/28 11:44:44;;;;;;;17.30;9.13;;;;;;;;;;5034009;28;20366;-82
2022/04/28 11:47:10;;;;;;;20.33;9.65;;;;;;;;;;5034059;28;20032;-83
2022/04/28 11:49:38;;;;;;;15.77;8.55;;;;;;;;;;5034187;28;20022;-83
2022/04/28 11:52:15;;;;;;;22.25;9.90;;;;;;;;;;5034180;28;20116;-83
2022/04/28 11:54:41;;;;;;;31.48;9.80;;;;;;;;;;5035319;28;20022;-83
2022/04/28 11:57:07;;;;;;;23.75;9.45;;;;;;;;;;5034100;28;20476;-83
2022/04/28 11:59:39;;;;;;;24.10;9.68;;;;;;;;;;5035394;28;20028;-83
2022/04/28 12:02:04;;;;;;;24.25;10.02;;;;;;;;;;5035182;28;20103;-83
2022/04/28 12:04:29;;;;;;;17.88;9.60;;;;;;;;;;5034892;28;20424;-83
2022/04/28 12:06:55;;;;;;;19.77;9.85;;;;;;;;;;5033571;28;20530;-83
2022/04/28 12:14:51;;;;;;;20.42;10.35;;;;;;;;;;5053740;28;20047;-83
2022/04/28 12:20:02;;;;;;;27.70;9.18;;;;;;;;;;5051879;28;20048;-83
2022/04/28 12:22:28;;;;;;;21.90;8.50;;;;;;;;;;5054537;28;20389;-84
2022/04/28 12:24:53;;;;;;;24.38;10.15;;;;;;;;;;5033650;28;20037;-83
2022/04/28 12:27:19;;;;;;;22.50;10.07;;;;;;;;;;5033455;28;20338;-83
2022/04/28 12:29:54;;;;;;;23.45;9.18;;;;;;;;;;5033517;28;20025;-83
2022/04/28 12:32:21;;;;;;;19.13;8.07;;;;;;;;;;5049850;28;20025;-84
2022/04/28 12:34:55;;;;;;;20.88;11.70;;;;;;;;;;5049942;28;20415;-83
2022/04/28 12:37:25;;;;;;;34.53;12.32;;;;;;;;;;5033294;28;20087;-83
2022/04/28 12:39:58;;;;;;;25.20;10.38;;;;;;;;;;5033326;28;20345;-83
2022/04/28 12:42:25;;;;;;;22.13;8.45;;;;;;;;;;5033069;28;20030;-83
2022/04/28 12:44:50;;;;;;;23.00;9.77;;;;;;;;;;5036441;28;20107;-83
2022/04/28 12:47:16;;;;;;;23.63;9.50;;;;;;;;;;5039440;28;20050;-83
2022/04/28 12:49:45;;;;;;;20.70;10.63;;;;;;;;;;5040455;28;20056;-83
2022/04/28 12:52:10;;;;;;;21.48;10.38;;;;;;;;;;5035410;28;20427;-83
2022/04/28 12:54:38;;;;;;;20.42;10.10;;;;;;;;;;5047686;28;20017;-83
2022/04/28 12:57:04;;;;;;;23.77;9.88;;;;;;;;;;5039185;28;20112;-83
2022/04/28 12:59:36;;;;;;;16.42;8.38;;;;;;;;;;5041869;28;20100;-83
2022/04/28 13:02:01;;;;;;;16.52;8.25;;;;;;;;;;5050290;28;20366;-83
2022/04/28 13:04:27;;;;;;;20.80;8.73;;;;;;;;;;5032084;28;20037;-82
2022/04/28 13:06:53;;;;;;;17.85;8.85;;;;;;;;;;5027490;28;20016;-83
2022/04/28 13:09:19;;;;;;;16.70;8.88;;;;;;;;;;5017543;28;20017;-83
2022/04/28 13:11:45;;;;;;;20.13;8.88;;;;;;;;;;5023589;28;20108;-84
2022/04/28 13:14:12;;;;;;;20.13;9.88;;;;;;;;;;5046704;28;20017;-83
2022/04/28 13:16:38;;;;;;;25.55;10.75;;;;;;;;;;5051629;28;20025;-84
2022/04/28 13:19:04;;;;;;;19.48;8.98;;;;;;;;;;5036892;28;20018;-83
2022/04/28 13:21:30;;;;;;;17.17;10.68;;;;;;;;;;5034614;28;20079;-83
2022/04/28 13:23:55;;;;;;;18.50;8.93;;;;;;;;;;5032966;28;20049;-83
2022/04/28 13:26:21;;;;;;;16.17;8.80;;;;;;;;;;5035400;28;20021;-83
2022/04/28 13:28:47;;;;;;;22.88;9.07;;;;;;;;;;5042466;28;20027;-84
2022/04/28 13:31:13;;;;;;;20.67;7.93;;;;;;;;;;5048970;28;20029;-83
2022/04/28 13:33:39;;;;;;;19.88;9.40;;;;;;;;;;5058012;28;20021;-83
2022/04/28 13:36:05;;;;;;;19.55;10.15;;;;;;;;;;5033673;28;20025;-83
2022/04/28 13:38:31;;;;;;;15.27;8.38;;;;;;;;;;5029372;28;20017;-83
2022/04/28 13:40:56;;;;;;;15.73;8.48;;;;;;;;;;5071865;28;20087;-83
2022/04/28 13:43:22;;;;;;;24.52;11.70;;;;;;;;;;5033482;28;20104;-83
2022/04/28 13:45:47;;;;;;;20.52;10.73;;;;;;;;;;5033105;28;20017;-83
2022/04/28 13:48:12;;;;;;;21.60;10.20;;;;;;;;;;5026787;28;20014;-83
2022/04/28 13:50:38;;;;;;;19.08;10.15;;;;;;;;;;5042884;28;20105;-83
2022/04/28 13:53:04;;;;;;;19.02;10.70;;;;;;;;;;5033064;28;20044;-83
2022/04/28 13:55:29;;;;;;;19.58;9.73;;;;;;;;;;5037113;28;20388;-83
2022/04/28 13:57:54;;;;;;;22.35;9.43;;;;;;;;;;5055009;28;20034;-84
2022/04/28 14:00:21;;;;;;;24.80;10.93;;;;;;;;;;5031648;28;20036;-84
2022/04/28 14:02:47;;;;;;;21.17;10.98;;;;;;;;;;5030580;28;20033;-83
2022/04/28 14:05:12;;;;;;;19.73;9.95;;;;;;;;;;5031654;28;20025;-83
2022/04/28 14:07:37;;;;;;;15.65;8.05;;;;;;;;;;5039614;28;20022;-83
2022/04/28 14:10:05;;;;;;;22.85;9.48;;;;;;;;;;5031246;28;20025;-83
2022/04/28 14:12:30;;;;;;;20.27;8.43;;;;;;;;;;5029771;28;20124;-83
2022/04/28 14:14:55;;;;;;;24.27;10.02;;;;;;;;;;5023981;28;20108;-83
2022/04/28 14:17:21;;;;;;;13.13;7.90;;;;;;;;;;5016758;28;20483;-84
2022/04/28 14:19:46;;;;;;;16.50;8.88;;;;;;;;;;5028559;28;21185;-83
2022/04/28 14:22:17;;;;;;;17.92;9.60;;;;;;;;;;5030960;28;20028;-82
2022/04/28 14:24:42;;;;;;;22.95;7.80;;;;;;;;;;5031461;28;20029;-83
2022/04/28 14:27:08;;;;;;;17.85;8.68;;;;;;;;;;5051826;28;20021;-83
2022/04/28 14:29:33;;;;;;;16.73;9.75;;;;;;;;;;5032147;28;20074;-83
2022/04/28 14:32:00;;;;;;;15.23;7.97;;;;;;;;;;5032487;28;20022;-83
2022/04/28 14:34:25;;;;;;;19.92;10.00;;;;;;;;;;5031287;28;20029;-83
2022/04/28 14:36:51;;;;;;;22.63;7.82;;;;;;;;;;5043639;28;20055;-83
2022/04/28 14:39:16;;;;;;;16.23;8.25;;;;;;;;;;5050214;28;20025;-84
2022/04/28 14:41:41;;;;;;;16.27;9.10;;;;;;;;;;5039813;28;20473;-83
2022/04/28 14:44:06;;;;;;;19.08;10.70;;;;;;;;;;5036798;28;20024;-84
2022/04/28 14:46:32;;;;;;;21.45;9.68;;;;;;;;;;5034922;28;20044;-83
2022/04/28 14:54:25;;;;;;;16.85;9.10;;;;;;;;;;5036515;28;20024;-83
2022/04/28 14:56:50;;;;;;;23.63;9.85;;;;;;;;;;5034730;28;20018;-83
2022/04/28 14:59:19;;;;;;;13.85;6.47;;;;;;;;;;5035126;28;20021;-83
2022/04/28 15:01:45;;;;;;;17.55;8.05;;;;;;;;;;5033621;28;20032;-84
2022/04/28 15:04:10;;;;;;;22.13;8.70;;;;;;;;;;5034683;28;20595;-84
2022/04/28 15:06:35;;;;;;;26.40;8.68;;;;;;;;;;5034209;28;20100;-83
2022/04/28 15:09:00;;;;;;;15.43;7.85;;;;;;;;;;5034170;28;20017;-83